Time;durP1;ratioP1;P1;durP2;ratioP2;P2;SDS_P1;SDS_P2;PMS_P1;PMS_P2;Temp;Humidity;BMP_temperature;BMP_pressure;BME280_temperature;BME280_humidity;BME280_pressure;Samples;Min_cycle;Max_cycle;Signal;HPM_P1;HPM_P2
2022/05/20 00:00:28;;;;;;;;;;;;;;;13.19;100.00;99299.50;5119227;27;20394;-87
2022/05/20 00:02:56;;;;;;;;;;;;;;;13.52;100.00;99311.59;5137489;27;19934;-87
2022/05/20 00:05:24;;;;;;;;;;;;;;;13.65;100.00;99309.66;5136288;27;20327;-87
2022/05/20 00:07:51;;;;;;;;;;;;;;;13.77;100.00;99300.53;5102419;27;19924;-87
2022/05/20 00:10:19;;;;;;;;;;;;;;;13.75;100.00;99292.53;5119599;27;19972;-87
2022/05/20 00:12:47;;;;;;;;;;;;;;;13.71;100.00;99302.28;5119055;27;19931;-86
2022/05/20 00:15:20;;;;;;;;;;;;;;;13.77;100.00;99292.09;5135890;27;19923;-86
2022/05/20 00:17:47;;;;;;;;;;;;;;;14.08;100.00;99287.69;5119059;27;20366;-88
2022/05/20 00:20:16;;;;;;;;;;;;;;;14.14;100.00;99297.97;5102645;27;20263;-90
2022/05/20 00:22:43;;;;;;;;;;;;;;;13.98;100.00;99294.41;5085533;27;19923;-88
2022/05/20 00:28:00;;;;;;;;;;;;;;;13.00;100.00;99302.34;5119081;27;19998;-87
2022/05/20 00:30:27;;;;;;;;;;;;;;;12.58;100.00;99304.81;5136119;27;20271;-87
2022/05/20 00:32:54;;;;;;;;;;;;;;;12.19;100.00;99301.97;5118714;27;19923;-87
2022/05/20 00:35:22;;;;;;;;;;;;;;;11.59;100.00;99298.59;5135730;27;20386;-86
2022/05/20 00:37:49;;;;;;;;;;;;;;;11.35;100.00;99314.59;5135736;27;20417;-86
2022/05/20 00:40:19;;;;;;;;;;;;;;;11.97;100.00;99314.78;5118596;27;19928;-86
2022/05/20 00:42:48;;;;;;;;;;;;;;;12.38;100.00;99301.22;5118851;27;19972;-86
2022/05/20 00:45:16;;;;;;;;;;;;;;;12.58;100.00;99301.22;5119064;27;20518;-86
2022/05/20 00:47:43;;;;;;;;;;;;;;;13.01;100.00;99309.56;5101437;27;20013;-87
2022/05/20 00:50:13;;;;;;;;;;;;;;;13.04;100.00;99311.50;5101571;27;19927;-86
2022/05/20 00:52:42;;;;;;;;;;;;;;;13.19;100.00;99309.97;5101688;27;20263;-86
2022/05/20 00:55:13;;;;;;;;;;;;;;;13.37;100.00;99308.34;5135297;27;20419;-86
2022/05/20 00:57:43;;;;;;;;;;;;;;;12.34;100.00;99299.72;5118067;27;19945;-86
2022/05/20 01:00:12;;;;;;;;;;;;;;;12.84;100.00;99286.25;5119002;27;20250;-86
2022/05/20 01:02:40;;;;;;;;;;;;;;;12.24;100.00;99278.28;5134989;27;20387;-86
2022/05/20 01:05:15;;;;;;;;;;;;;;;11.67;100.00;99286.13;5136655;27;20385;-86
2022/05/20 01:07:45;;;;;;;;;;;;;;;11.87;100.00;99298.97;5135860;27;19923;-86
2022/05/20 01:10:13;;;;;;;;;;;;;;;11.90;100.00;99298.13;5117943;27;20010;-86
2022/05/20 01:12:41;;;;;;;;;;;;;;;12.45;100.00;99291.88;5117828;27;20389;-87
2022/05/20 01:15:08;;;;;;;;;;;;;;;12.24;100.00;99278.28;5117926;27;20378;-87
2022/05/20 01:17:36;;;;;;;;;;;;;;;12.36;100.00;99280.44;5135121;27;19930;-93
2022/05/20 01:20:08;;;;;;;;;;;;;;;11.84;100.00;99285.84;5101610;27;20390;-90
2022/05/20 01:22:54;;;;;;;;;;;;;;;12.28;100.00;99274.19;5101623;27;19923;-89
2022/05/20 01:25:22;;;;;;;;;;;;;;;11.24;100.00;99288.75;5100846;27;20324;-88
2022/05/20 01:27:50;;;;;;;;;;;;;;;11.18;100.00;99292.47;5100799;27;20401;-88
2022/05/20 01:30:20;;;;;;;;;;;;;;;11.43;100.00;99301.28;5101069;27;20397;-88
2022/05/20 01:32:47;;;;;;;;;;;;;;;12.22;100.00;99298.31;5117432;27;20052;-87
2022/05/20 01:35:17;;;;;;;;;;;;;;;12.61;100.00;99286.34;5117607;27;20303;-87
2022/05/20 01:37:44;;;;;;;;;;;;;;;12.95;100.00;99295.22;5100676;27;19980;-87
2022/05/20 01:40:12;;;;;;;;;;;;;;;13.09;100.00;99291.34;5117713;27;19923;-87
2022/05/20 01:42:45;;;;;;;;;;;;;;;13.13;100.00;99284.41;5117639;27;19923;-87
2022/05/20 01:45:25;;;;;;;;;;;;;;;12.54;100.00;99280.91;5134287;27;19931;-87
2022/05/20 01:48:11;;;;;;;;;;;;;;;12.40;100.00;99273.53;5134497;27;20489;-87
2022/05/20 01:50:43;;;;;;;;;;;;;;;12.90;100.00;99261.28;5135698;27;19970;-87
2022/05/20 01:53:14;;;;;;;;;;;;;;;12.43;100.00;99267.06;5117319;27;19923;-87
2022/05/20 01:55:50;;;;;;;;;;;;;;;12.52;100.00;99270.13;5135483;27;19946;-87
2022/05/20 01:58:21;;;;;;;;;;;;;;;12.96;100.00;99265.16;5134342;27;20374;-87
2022/05/20 02:00:51;;;;;;;;;;;;;;;12.13;100.00;99261.66;5133942;27;19972;-86
2022/05/20 02:03:36;;;;;;;;;;;;;;;12.26;100.00;99271.03;5100270;27;19931;-87
2022/05/20 02:06:03;;;;;;;;;;;;;;;12.84;100.00;99263.03;5117079;27;19930;-87
2022/05/20 02:08:49;;;;;;;;;;;;;;;12.17;100.00;99270.00;5116984;27;19931;-87
2022/05/20 02:11:23;;;;;;;;;;;;;;;11.79;100.00;99263.91;5134107;27;19927;-86
2022/05/20 02:13:53;;;;;;;;;;;;;;;11.37;100.00;99259.00;5099780;27;19931;-87
2022/05/20 02:16:24;;;;;;;;;;;;;;;10.88;100.00;99276.53;5117085;27;19923;-87
2022/05/20 02:18:56;;;;;;;;;;;;;;;11.71;100.00;99262.44;5133917;27;20382;-87
2022/05/20 02:21:26;;;;;;;;;;;;;;;12.03;100.00;99262.66;5083176;27;20369;-86
2022/05/20 02:23:55;;;;;;;;;;;;;;;12.31;100.00;99267.72;5133790;27;19972;-87
2022/05/20 02:26:24;;;;;;;;;;;;;;;12.39;100.00;99263.56;5116684;27;19930;-88
2022/05/20 02:28:56;;;;;;;;;;;;;;;11.88;100.00;99272.56;5082804;28;19924;-87
2022/05/20 02:31:34;;;;;;;;;;;;;;;11.95;100.00;99266.81;5116647;28;19931;-87
2022/05/20 02:34:01;;;;;;;;;;;;;;;11.62;100.00;99253.81;5099676;28;19924;-87
2022/05/20 02:36:33;;;;;;;;;;;;;;;11.45;100.00;99251.28;5116617;28;19930;-87
2022/05/20 02:40:03;;;;;;;;;;;;;;;12.03;100.00;99239.47;5112625;27;20359;-87
2022/05/20 02:42:30;;;;;;;;;;;;;;;11.34;100.00;99245.88;5110486;28;19928;-87
2022/05/20 02:44:59;;;;;;;;;;;;;;;11.74;100.00;99239.19;5110640;28;19924;-87
2022/05/20 02:47:31;;;;;;;;;;;;;;;11.96;100.00;99234.81;5076872;28;19930;-87
2022/05/20 02:49:59;;;;;;;;;;;;;;;12.18;100.00;99235.97;5076628;28;20023;-87
2022/05/20 02:52:26;;;;;;;;;;;;;;;12.48;100.00;99226.56;5110400;28;19930;-87
2022/05/20 02:54:53;;;;;;;;;;;;;;;12.44;100.00;99232.25;5093681;28;19931;-87
2022/05/20 02:57:20;;;;;;;;;;;;;;;12.39;100.00;99224.34;5093379;28;19924;-87
2022/05/20 03:05:20;;;;;;;;;;;;;;;11.79;100.00;99230.31;5110246;28;19924;-87
2022/05/20 03:07:47;;;;;;;;;;;;;;;12.32;100.00;99221.69;5093517;28;19928;-87
2022/05/20 03:10:14;;;;;;;;;;;;;;;12.52;100.00;99218.88;5093145;28;20394;-87
2022/05/20 03:12:42;;;;;;;;;;;;;;;12.58;100.00;99214.34;5093482;28;19931;-87
2022/05/20 03:15:10;;;;;;;;;;;;;;;12.35;100.00;99211.63;5110138;28;20020;-87
2022/05/20 03:17:38;;;;;;;;;;;;;;;12.29;100.00;99213.34;5093222;28;19931;-87
2022/05/20 03:20:05;;;;;;;;;;;;;;;11.35;100.00;99208.28;5092694;28;19973;-87
2022/05/20 03:22:33;;;;;;;;;;;;;;;11.87;100.00;99208.59;5076160;28;19931;-88
2022/05/20 03:25:04;;;;;;;;;;;;;;;11.72;100.00;99208.03;5110098;28;19947;-88
2022/05/20 03:27:31;;;;;;;;;;;;;;;12.26;100.00;99206.59;5092641;28;19931;-87
2022/05/20 03:29:58;;;;;;;;;;;;;;;12.66;100.00;99196.16;5092939;28;20299;-88
2022/05/20 03:32:25;;;;;;;;;;;;;;;12.87;100.00;99203.28;5093026;28;20014;-87
2022/05/20 03:34:54;;;;;;;;;;;;;;;12.86;100.00;99210.13;5092759;28;19924;-87
2022/05/20 03:37:21;;;;;;;;;;;;;;;12.80;100.00;99197.84;5110882;28;20383;-87
2022/05/20 03:39:48;;;;;;;;;;;;;;;12.58;100.00;99197.50;5092566;28;20018;-88
2022/05/20 03:42:15;;;;;;;;;;;;;;;12.35;100.00;99200.41;5075596;28;20019;-87
2022/05/20 03:44:42;;;;;;;;;;;;;;;12.28;100.00;99198.53;5075935;28;19924;-87
2022/05/20 03:47:10;;;;;;;;;;;;;;;12.61;100.00;99191.03;5109565;28;19931;-88
2022/05/20 03:49:37;;;;;;;;;;;;;;;12.73;100.00;99181.97;5088951;28;19924;-87
2022/05/20 03:52:04;;;;;;;;;;;;;;;12.35;100.00;99178.78;5062475;28;19928;-87
2022/05/20 03:54:32;;;;;;;;;;;;;;;11.96;100.00;99187.22;5078860;28;19973;-88
2022/05/20 03:57:01;;;;;;;;;;;;;;;12.01;100.00;99181.09;5096931;28;20571;-87
2022/05/20 03:59:29;;;;;;;;;;;;;;;12.16;100.00;99187.22;5079118;28;20379;-88
2022/05/20 04:01:59;;;;;;;;;;;;;;;12.15;100.00;99189.22;5095646;28;19924;-88
2022/05/20 04:04:31;;;;;;;;;;;;;;;12.47;100.00;99172.53;5095682;28;19924;-88
2022/05/20 04:06:59;;;;;;;;;;;;;;;12.59;100.00;99166.25;5078768;28;20354;-88
2022/05/20 04:09:26;;;;;;;;;;;;;;;12.17;100.00;99172.78;5095151;28;20390;-88
2022/05/20 04:11:55;;;;;;;;;;;;;;;12.59;100.00;99166.25;5078659;28;20019;-87
2022/05/20 04:14:23;;;;;;;;;;;;;;;12.86;100.00;99168.06;5078423;28;19928;-87
2022/05/20 04:16:55;;;;;;;;;;;;;;;12.93;100.00;99167.88;5095597;28;19928;-88
2022/05/20 04:19:22;;;;;;;;;;;;;;;13.10;100.00;99155.47;5061542;28;19931;-88
2022/05/20 04:21:52;;;;;;;;;;;;;;;12.11;100.00;99152.09;5062095;28;19982;-88
2022/05/20 04:24:21;;;;;;;;;;;;;;;11.63;100.00;99165.06;5045308;28;19924;-88
2022/05/20 04:26:48;;;;;;;;;;;;;;;11.47;100.00;99162.91;5096027;28;20437;-92
2022/05/20 04:29:16;;;;;;;;;;;;;;;11.59;100.00;99173.47;5079074;28;19963;-90
2022/05/20 04:31:44;;;;;;;;;;;;;;;12.23;100.00;99171.03;5045271;28;19973;-89
2022/05/20 04:34:11;;;;;;;;;;;;;;;12.33;100.00;99177.63;5094987;28;19924;-88
2022/05/20 04:36:38;;;;;;;;;;;;;;;12.20;100.00;99177.50;5078423;28;19951;-87
2022/05/20 04:39:05;;;;;;;;;;;;;;;12.01;100.00;99181.09;5044596;28;20022;-88
2022/05/20 04:47:06;;;;;;;;;;;;;;;11.36;100.00;99179.06;5095165;28;19928;-87
2022/05/20 04:49:33;;;;;;;;;;;;;;;11.81;100.00;99185.91;5061171;28;19924;-87
2022/05/20 04:52:00;;;;;;;;;;;;;;;11.58;100.00;99174.69;5094659;28;19924;-87
2022/05/20 04:57:25;;;;;;;;;;;;;;;12.37;100.00;99190.34;5094599;28;19947;-86
2022/05/20 04:59:58;;;;;;;;;;;;;;;12.17;100.00;99189.56;5061782;28;19990;-87
2022/05/20 05:02:25;;;;;;;;;;;;;;;12.48;100.00;99185.31;5093589;28;20401;-86
2022/05/20 05:04:52;;;;;;;;;;;;;;;12.61;100.00;99179.81;5078136;28;19928;-86
2022/05/20 05:07:19;;;;;;;;;;;;;;;12.81;100.00;99160.16;5077301;28;19932;-86
2022/05/20 05:09:47;;;;;;;;;;;;;;;12.87;100.00;99164.00;5077494;28;19931;-86
2022/05/20 05:12:15;;;;;;;;;;;;;;;13.04;100.00;99168.44;5077524;28;19925;-87
2022/05/20 05:14:47;;;;;;;;;;;;;;;12.65;100.00;99178.53;5060807;28;19933;-86
2022/05/20 05:17:16;;;;;;;;;;;;;;;12.62;100.00;99176.59;5060698;28;19925;-86
2022/05/20 05:19:44;;;;;;;;;;;;;;;12.37;100.00;99181.16;5060648;28;19924;-86
2022/05/20 05:22:12;;;;;;;;;;;;;;;11.91;100.00;99179.28;5093898;28;19932;-87
2022/05/20 05:24:40;;;;;;;;;;;;;;;11.60;100.00;99183.44;5077960;28;19931;-86
2022/05/20 05:27:08;;;;;;;;;;;;;;;12.07;100.00;99190.56;5060884;28;20010;-86
2022/05/20 05:29:36;;;;;;;;;;;;;;;12.26;100.00;99192.59;5077117;28;19935;-86
2022/05/20 05:32:03;;;;;;;;;;;;;;;12.45;100.00;99193.78;5094948;28;19924;-87
2022/05/20 05:34:30;;;;;;;;;;;;;;;12.52;100.00;99188.84;5077130;28;19931;-87
2022/05/20 05:36:58;;;;;;;;;;;;;;;12.20;100.00;99188.72;5076981;28;19967;-86
2022/05/20 05:39:25;;;;;;;;;;;;;;;12.96;100.00;99184.63;5093408;28;19928;-83
2022/05/20 05:41:52;;;;;;;;;;;;;;;13.29;100.00;99179.84;5094787;28;19932;-93
2022/05/20 05:44:20;;;;;;;;;;;;;;;13.50;100.00;99182.09;5045552;28;20303;-93
2022/05/20 05:47:15;;;;;;;;;;;;;;;13.76;100.00;99172.59;5053296;28;19908;-96
2022/05/20 05:50:10;;;;;;;;;;;;;;;12.85;100.00;99177.66;5114783;28;19952;-96
2022/05/20 05:52:41;;;;;;;;;;;;;;;13.26;100.00;99169.50;5062786;28;19924;-93
2022/05/20 05:55:09;;;;;;;;;;;;;;;13.45;100.00;99183.44;5044757;28;19924;-94
2022/05/20 05:57:36;;;;;;;;;;;;;;;13.77;100.00;99177.75;5061258;28;19930;-94
2022/05/20 06:00:04;;;;;;;;;;;;;;;13.89;100.00;99184.66;5060975;28;19924;-93
2022/05/20 06:02:38;;;;;;;;;;;;;;;13.95;100.00;99189.31;5061868;28;19925;-93
2022/05/20 06:05:06;;;;;;;;;;;;;;;13.10;100.00;99189.13;5044623;28;19931;-92
2022/05/20 06:07:33;;;;;;;;;;;;;;;12.94;100.00;99197.50;5060743;28;19931;-93
2022/05/20 06:10:01;;;;;;;;;;;;;;;13.04;100.00;99196.50;5044341;28;19924;-94
2022/05/20 06:12:31;;;;;;;;;;;;;;;12.87;100.00;99201.25;5044080;28;19930;-93
2022/05/20 06:15:01;;;;;;;;;;;;;;;13.48;100.00;99198.63;5043928;28;20390;-94
2022/05/20 06:17:29;;;;;;;;;;;;;;;13.66;100.00;99198.94;5044208;28;20026;-95
2022/05/20 06:19:57;;;;;;;;;;;;;;;13.86;100.00;99193.97;5043956;28;19930;-95
2022/05/20 06:22:24;;;;;;;;;;;;;;;13.94;100.00;99189.75;5060184;28;19924;-93
2022/05/20 06:24:51;;;;;;;;;;;;;;;13.72;100.00;99192.34;5044072;28;19928;-95
2022/05/20 06:27:19;;;;;;;;;;;;;;;13.43;100.00;99185.91;5044256;28;19924;-94
2022/05/20 06:29:47;;;;;;;;;;;;;;;13.72;100.00;99188.75;5044038;28;19931;-94
2022/05/20 06:32:15;;;;;;;;;;;;;;;13.59;100.00;99188.69;5076959;28;19928;-95
2022/05/20 06:40:17;;;;;;;;;;;;;;;13.82;100.00;99179.25;5060259;28;20018;-94
2022/05/20 06:42:44;;;;;;;;;;;;;;;13.92;100.00;99166.91;5043485;28;20009;-85
2022/05/20 06:45:12;;;;;;;;;;;;;;;14.34;100.00;99157.31;5092900;28;19929;-91
2022/05/20 06:47:41;;;;;;;;;;;;;;;14.59;100.00;99148.91;5076507;28;19925;-87
2022/05/20 06:50:09;;;;;;;;;;;;;;;14.80;100.00;99145.44;5092493;28;19924;-86
2022/05/20 06:52:37;;;;;;;;;;;;;;;14.83;100.00;99146.59;5092661;28;19978;-87
2022/05/20 06:55:06;;;;;;;;;;;;;;;15.01;100.00;99144.75;5092707;28;19967;-82
2022/05/20 06:57:37;;;;;;;;;;;;;;;14.85;100.00;99130.81;5059272;28;19932;-87
2022/05/20 07:00:05;;;;;;;;;;;;;;;14.78;100.00;99133.88;5059233;28;19931;-81
2022/05/20 07:02:32;;;;;;;;;;;;;;;14.29;100.00;99129.75;5092618;28;20344;-85
2022/05/20 07:05:03;;;;;;;;;;;;;;;13.98;100.00;99125.84;5075904;28;19924;-84
2022/05/20 07:07:31;;;;;;;;;;;;;;;14.41;100.00;99109.31;5072049;28;19928;-78
2022/05/20 07:09:58;;;;;;;;;;;;;;;14.85;100.00;99122.38;5087313;28;19924;-78
2022/05/20 07:12:26;;;;;;;;;;;;;;;15.09;100.00;99115.16;5089260;28;19924;-78
2022/05/20 07:14:53;;;;;;;;;;;;;;;15.25;100.00;99106.56;5089978;28;19924;-79
2022/05/20 07:17:20;;;;;;;;;;;;;;;15.58;100.00;99116.31;5090222;28;19924;-78
2022/05/20 07:19:50;;;;;;;;;;;;;;;15.84;100.00;99114.19;5090230;28;20030;-76
2022/05/20 07:22:17;;;;;;;;;;;;;;;16.08;100.00;99107.63;5089635;28;19924;-77
2022/05/20 07:24:45;;;;;;;;;;;;;;;15.89;100.00;99102.31;5089473;28;19928;-77
2022/05/20 07:27:12;;;;;;;;;;;;;;;15.73;100.00;99097.66;5094130;28;19924;-77
2022/05/20 07:29:40;;;;;;;;;;;;;;;15.70;100.00;99092.94;5093383;28;19924;-76
2022/05/20 07:32:10;;;;;;;;;;;;;;;16.37;100.00;99096.06;5091849;28;19931;-77
2022/05/20 07:34:38;;;;;;;;;;;;;;;16.77;100.00;99090.47;5092699;28;20267;-77
2022/05/20 07:37:06;;;;;;;;;;;;;;;16.88;100.00;99090.81;5092154;28;20430;-76
2022/05/20 07:39:33;;;;;;;;;;;;;;;17.03;100.00;99077.69;5093432;28;20007;-78
2022/05/20 07:42:02;;;;;;;;;;;;;;;16.52;100.00;99083.00;5093781;28;19924;-79
2022/05/20 07:44:30;;;;;;;;;;;;;;;16.52;100.00;99079.41;5094067;28;19928;-78
2022/05/20 07:46:57;;;;;;;;;;;;;;;16.03;100.00;99082.84;5093027;28;19924;-76
2022/05/20 07:49:24;;;;;;;;;;;;;;;16.21;100.00;99073.72;5094139;28;19924;-80
2022/05/20 07:51:52;;;;;;;;;;;;;;;16.12;100.00;99082.13;5075113;28;19964;-80
2022/05/20 07:54:23;;;;;;;;;;;;;;;15.69;100.00;99079.31;5092004;28;19924;-77
2022/05/20 07:56:57;;;;;;;;;;;;;;;15.80;100.00;99071.25;5093162;28;19924;-79
2022/05/20 07:59:29;;;;;;;;;;;;;;;15.67;100.00;99065.69;5093441;28;19932;-78
2022/05/20 08:01:57;;;;;;;;;;;;;;;15.91;100.00;99069.63;5093166;28;19932;-75
2022/05/20 08:07:13;;;;;;;;;;;;;;;16.34;100.00;99073.63;5072929;28;19928;-75
2022/05/20 08:09:41;;;;;;;;;;;;;;;16.20;100.00;99070.13;5072040;28;20034;-77
2022/05/20 08:12:08;;;;;;;;;;;;;;;16.25;100.00;99072.34;5072559;28;20421;-75
2022/05/20 08:14:40;;;;;;;;;;;;;;;16.69;100.00;99075.09;5086046;28;19928;-78
2022/05/20 08:17:07;;;;;;;;;;;;;;;16.79;100.00;99069.00;5090971;28;19984;-75
2022/05/20 08:19:34;;;;;;;;;;;;;;;16.85;100.00;99061.50;5070887;28;20359;-76
2022/05/20 08:22:02;;;;;;;;;;;;;;;16.65;100.00;99065.97;5073006;28;20414;-74
2022/05/20 08:24:30;;;;;;;;;;;;;;;16.74;100.00;99057.53;5072095;28;19924;-75
2022/05/20 08:26:58;;;;;;;;;;;;;;;16.95;100.00;99051.03;5072209;28;20446;-74
2022/05/20 08:29:26;;;;;;;;;;;;;;;17.27;100.00;99051.25;5089526;28;19960;-82
2022/05/20 08:31:53;;;;;;;;;;;;;;;17.11;100.00;99040.25;5075333;28;19924;-82
2022/05/20 08:34:20;;;;;;;;;;;;;;;17.04;100.00;99031.31;5092886;28;19931;-75
2022/05/20 08:36:47;;;;;;;;;;;;;;;17.13;100.00;99034.91;5092843;28;19924;-75
2022/05/20 08:39:17;;;;;;;;;;;;;;;17.41;100.00;99028.03;5091810;28;19928;-74
2022/05/20 08:41:53;;;;;;;;;;;;;;;17.61;100.00;99031.22;5091774;28;19952;-78
2022/05/20 08:44:21;;;;;;;;;;;;;;;17.14;100.00;99018.75;5090730;28;19924;-76
2022/05/20 08:46:49;;;;;;;;;;;;;;;16.79;100.00;99014.59;5074043;28;19924;-75
2022/05/20 08:49:18;;;;;;;;;;;;;;;16.95;100.00;99020.00;5091758;28;19935;-74
2022/05/20 08:51:48;;;;;;;;;;;;;;;17.36;100.00;99025.03;5090111;28;19928;-74
2022/05/20 08:54:15;;;;;;;;;;;;;;;17.65;100.00;99011.25;5090504;28;20345;-74
2022/05/20 08:56:44;;;;;;;;;;;;;;;17.38;100.00;99009.22;5091408;28;20619;-77
2022/05/20 08:59:15;;;;;;;;;;;;;;;17.38;100.00;99014.06;5090120;28;20330;-78
2022/05/20 09:01:44;;;;;;;;;;;;;;;17.48;100.00;99005.16;5090807;28;20368;-75
2022/05/20 09:04:15;;;;;;;;;;;;;;;17.60;100.00;99009.06;5092375;28;19932;-78
2022/05/20 09:06:55;;;;;;;;;;;;;;;17.70;100.00;99002.16;5091842;28;19928;-77
2022/05/20 09:09:26;;;;;;;;;;;;;;;17.78;100.00;98983.63;5091970;28;19924;-74
2022/05/20 09:11:57;;;;;;;;;;;;;;;18.27;100.00;98981.28;5090039;28;19951;-75
2022/05/20 09:17:14;;;;;;;;;;;;;;;18.55;100.00;98974.28;5091337;28;20026;-78
2022/05/20 09:20:01;;;;;;;;;;;;;;;18.38;100.00;98970.25;5073192;28;19931;-79
2022/05/20 09:22:29;;;;;;;;;;;;;;;18.63;100.00;98958.50;5089934;28;20013;-76
2022/05/20 09:24:57;;;;;;;;;;;;;;;18.69;100.00;98956.56;5091323;28;20433;-75
2022/05/20 09:27:27;;;;;;;;;;;;;;;18.52;100.00;98969.56;5091797;28;19924;-74
2022/05/20 09:30:03;;;;;;;;;;;;;;;18.24;100.00;98959.59;5091271;28;19947;-74
2022/05/20 09:32:37;;;;;;;;;;;;;;;18.81;100.00;98960.44;5091291;28;20810;-75
2022/05/20 09:35:14;;;;;;;;;;;;;;;18.14;100.00;98949.59;5089407;28;19932;-75
2022/05/20 09:37:41;;;;;;;;;;;;;;;18.39;100.00;98956.91;5090633;28;19973;-76
2022/05/20 09:40:48;;;;;;;;;;;;;;;18.22;100.00;98958.53;5089979;28;20010;-76
2022/05/20 09:43:22;;;;;;;;;;;;;;;18.66;100.00;98965.25;5048617;28;20443;-76
2022/05/20 09:45:50;;;;;;;;;;;;;;;18.43;100.00;98960.34;5048775;28;19929;-75
2022/05/20 09:48:33;;;;;;;;;;;;;;;18.56;100.00;98958.84;5047523;28;20023;-75
2022/05/20 09:51:18;;;;;;;;;;;;;;;18.88;100.00;98951.56;5048281;28;20653;-76
2022/05/20 09:54:04;;;;;;;;;;;;;;;18.92;100.00;98952.97;5048354;28;19963;-75
2022/05/20 09:56:33;;;;;;;;;;;;;;;18.61;100.00;98943.25;5047960;28;19947;-75
2022/05/20 09:59:00;;;;;;;;;;;;;;;18.45;100.00;98941.63;5047904;28;19925;-77
2022/05/20 10:01:29;;;;;;;;;;;;;;;18.30;100.00;98940.72;5044805;28;19956;-76
2022/05/20 10:04:03;;;;;;;;;;;;;;;18.12;100.00;98952.09;5047435;28;19924;-75
2022/05/20 10:06:48;;;;;;;;;;;;;;;18.17;100.00;98937.31;5047448;28;19924;-75
2022/05/20 10:09:15;;;;;;;;;;;;;;;18.43;100.00;98932.06;5047455;28;19924;-76
2022/05/20 10:11:56;;;;;;;;;;;;;;;18.43;100.00;98949.81;5030675;28;20009;-76
2022/05/20 10:14:27;;;;;;;;;;;;;;;18.15;100.00;98942.66;5031207;28;19925;-76
2022/05/20 10:16:57;;;;;;;;;;;;;;;17.79;100.00;98937.94;5062885;28;19924;-75
2022/05/20 10:19:30;;;;;;;;;;;;;;;17.53;100.00;98938.75;5090627;28;19931;-75
2022/05/20 10:22:05;;;;;;;;;;;;;;;17.77;100.00;98945.31;5089937;28;19978;-75
2022/05/20 10:24:48;;;;;;;;;;;;;;;17.49;100.00;98960.75;5088376;28;19924;-75
2022/05/20 10:27:16;;;;;;;;;;;;;;;17.80;100.00;98958.47;5089954;28;19924;-76
2022/05/20 10:32:51;;;;;;;;;;;;;;;18.12;100.00;98952.09;5089080;28;19924;-76
2022/05/20 10:35:24;;;;;;;;;;;;;;;17.32;100.00;98953.81;5072758;28;19936;-79
2022/05/20 10:38:03;;;;;;;;;;;;;;;17.43;100.00;98956.97;5089572;28;19934;-80
2022/05/20 10:40:33;;;;;;;;;;;;;;;16.98;100.00;98973.91;5091102;28;19924;-78
2022/05/20 10:43:09;;;;;;;;;;;;;;;16.77;100.00;98969.94;5090680;28;19924;-82
2022/05/20 10:48:49;;;;;;;;;;;;;;;17.17;100.00;98967.00;5073107;28;19924;-78
2022/05/20 10:51:25;;;;;;;;;;;;;;;17.22;100.00;98969.97;5089792;28;20552;-75
2022/05/20 10:54:15;;;;;;;;;;;;;;;17.05;100.00;98967.94;5090086;28;19959;-75
2022/05/20 10:56:42;;;;;;;;;;;;;;;17.20;100.00;98954.75;5089572;28;19924;-77
2022/05/20 10:59:21;;;;;;;;;;;;;;;16.70;100.00;98960.97;5088643;28;20015;-77
2022/05/20 11:01:54;;;;;;;;;;;;;;;17.14;100.00;98951.81;5093583;28;20448;-77
2022/05/20 11:04:29;;;;;;;;;;;;;;;16.96;100.00;98948.19;5092900;28;19924;-75
2022/05/20 11:07:29;;;;;;;;;;;;;;;17.24;100.00;98932.78;5093263;28;19947;-74
2022/05/20 11:10:03;;;;;;;;;;;;;;;17.07;100.00;98934.38;5063513;28;19924;-75
2022/05/20 11:12:53;;;;;;;;;;;;;;;17.16;100.00;98925.91;5093553;28;19925;-75
2022/05/20 11:15:41;;;;;;;;;;;;;;;17.15;100.00;98929.97;5093857;28;19924;-75
2022/05/20 11:18:23;;;;;;;;;;;;;;;17.45;100.00;98917.75;5054742;28;20359;-76
2022/05/20 11:21:06;;;;;;;;;;;;;;;17.54;100.00;98907.22;5075218;28;19924;-75
2022/05/20 11:23:44;;;;;;;;;;;;;;;17.72;100.00;98909.22;5093384;28;19924;-76
2022/05/20 11:26:21;;;;;;;;;;;;;;;17.79;100.00;98909.69;5091786;28;19974;-75
2022/05/20 11:28:48;;;;;;;;;;;;;;;18.02;100.00;98911.00;5093046;28;19928;-75
2022/05/20 11:31:24;;;;;;;;;;;;;;;17.89;100.00;98899.09;5092487;28;19924;-75
2022/05/20 11:34:03;;;;;;;;;;;;;;;17.62;100.00;98885.84;5092487;28;20293;-75
2022/05/20 11:36:49;;;;;;;;;;;;;;;18.04;100.00;98887.91;5093693;28;19924;-75
2022/05/20 11:39:19;;;;;;;;;;;;;;;18.25;100.00;98881.22;5091621;28;19930;-75
2022/05/20 11:41:57;;;;;;;;;;;;;;;18.28;100.00;98875.34;5092456;28;19931;-76
2022/05/20 11:44:24;;;;;;;;;;;;;;;18.01;100.00;98867.00;5093677;28;20383;-77
2022/05/20 11:47:22;;;;;;;;;;;;;;;18.29;100.00;98868.47;5093482;28;19931;-77
2022/05/20 11:50:02;;;;;;;;;;;;;;;17.99;100.00;98853.38;5080240;28;20065;-78
2022/05/20 11:52:35;;;;;;;;;;;;;;;18.11;100.00;98854.41;5092999;28;20040;-76
2022/05/20 11:55:07;;;;;;;;;;;;;;;18.06;100.00;98857.91;5093317;28;19930;-85
2022/05/20 11:57:38;;;;;;;;;;;;;;;18.09;100.00;98854.09;5093435;28;19930;-79
2022/05/20 12:00:07;;;;;;;;;;;;;;;18.24;100.00;98846.47;5092457;28;19924;-77
2022/05/20 12:02:48;;;;;;;;;;;;;;;18.06;100.00;98846.59;5092431;28;20747;-78
2022/05/20 12:05:16;;;;;;;;;;;;;;;18.08;100.00;98837.63;5091804;28;19973;-78
2022/05/20 12:07:44;;;;;;;;;;;;;;;17.77;100.00;98829.44;5091196;28;19924;-78
2022/05/20 12:10:29;;;;;;;;;;;;;;;18.17;100.00;98829.88;5093406;28;19960;-78
2022/05/20 12:13:22;;;;;;;;;;;;;;;18.16;100.00;98833.19;5091585;28;19924;-78
2022/05/20 12:16:07;;;;;;;;;;;;;;;18.02;100.00;98828.22;5090396;28;19963;-78
2022/05/20 12:24:15;;;;;;;;;;;;;;;18.67;100.00;98831.78;5095088;28;19930;-85
2022/05/20 12:26:45;;;;;;;;;;;;;;;18.68;100.00;98824.84;5078701;28;19978;-87
2022/05/20 12:29:31;;;;;;;;;;;;;;;18.77;100.00;98816.28;5078667;28;20261;-88
2022/05/20 12:31:58;;;;;;;;;;;;;;;18.77;100.00;98816.28;5078389;28;19967;-86
2022/05/20 12:34:39;;;;;;;;;;;;;;;18.96;100.00;98823.31;5096341;28;19924;-87
2022/05/20 12:37:06;;;;;;;;;;;;;;;18.69;100.00;98820.72;5078558;28;20508;-89
2022/05/20 12:39:50;;;;;;;;;;;;;;;19.18;100.00;98809.59;5061512;28;19971;-89
2022/05/20 12:42:23;;;;;;;;;;;;;;;19.11;100.00;98806.38;5061419;28;19924;-90
2022/05/20 12:44:52;;;;;;;;;;;;;;;18.77;100.00;98810.59;5094900;28;19974;-86
2022/05/20 12:47:29;;;;;;;;;;;;;;;18.51;100.00;98806.72;5078354;28;19969;-92
2022/05/20 12:50:01;;;;;;;;;;;;;;;18.58;100.00;98814.88;5077294;28;20047;-85
2022/05/20 12:52:44;;;;;;;;;;;;;;;18.06;100.00;98804.19;5077815;28;20379;-85
2022/05/20 12:55:14;;;;;;;;;;;;;;;18.06;100.00;98806.22;5094396;28;19924;-87
2022/05/20 12:58:07;;;;;;;;;;;;;;;17.81;100.00;98813.13;5061227;28;20007;-87
2022/05/20 13:00:44;;;;;;;;;;;;;;;17.98;100.00;98805.03;5075890;28;19924;-87
2022/05/20 13:03:29;;;;;;;;;;;;;;;17.95;100.00;98806.75;5060975;28;20364;-88
2022/05/20 13:05:58;;;;;;;;;;;;;;;18.73;100.00;98812.06;5077663;28;20337;-87
2022/05/20 13:08:44;;;;;;;;;;;;;;;18.82;100.00;98803.50;5094331;28;19930;-87
2022/05/20 13:11:13;;;;;;;;;;;;;;;18.24;100.00;98811.75;5077328;28;20303;-88
2022/05/20 13:13:41;;;;;;;;;;;;;;;18.26;100.00;98809.25;5060892;28;19924;-87
2022/05/20 13:16:10;;;;;;;;;;;;;;;17.98;100.00;98800.13;5077392;28;19935;-88
2022/05/20 13:18:38;;;;;;;;;;;;;;;17.99;100.00;98813.78;5061090;28;19994;-87
2022/05/20 13:21:15;;;;;;;;;;;;;;;17.99;100.00;98808.13;5093954;28;20402;-88
2022/05/20 13:23:53;;;;;;;;;;;;;;;17.95;100.00;98818.84;5077779;28;19924;-89
2022/05/20 13:26:24;;;;;;;;;;;;;;;17.50;100.00;98821.06;5061190;28;19924;-88
2022/05/20 13:28:58;;;;;;;;;;;;;;;17.46;100.00;98840.25;5094258;28;19928;-88
2022/05/20 13:31:25;;;;;;;;;;;;;;;17.50;100.00;98838.03;5093889;28;19924;-88
2022/05/20 13:33:53;;;;;;;;;;;;;;;16.96;100.00;98855.03;5060737;28;20330;-89
2022/05/20 13:36:22;;;;;;;;;;;;;;;16.89;100.00;98858.19;5060728;28;19924;-90